createdAt,value
2018-12-05T00:00:01.335Z,9.71
2018-12-05T00:01:03.818Z,9.68
2018-12-05T00:02:06.313Z,9.71
2018-12-05T00:03:09.088Z,9.68
2018-12-05T00:04:11.546Z,9.64
2018-12-05T00:05:14.096Z,9.61
2018-12-05T00:06:16.543Z,9.59
2018-12-05T00:07:18.983Z,9.57
2018-12-05T00:08:21.424Z,9.54
2018-12-05T00:09:23.858Z,9.56
2018-12-05T00:10:26.284Z,9.56
2018-12-05T00:11:28.776Z,9.52
2018-12-05T00:12:31.221Z,9.56
2018-12-05T00:13:33.686Z,9.50
2018-12-05T00:14:36.235Z,9.49
2018-12-05T00:15:38.671Z,9.50
2018-12-05T00:16:41.128Z,9.49
2018-12-05T00:17:43.563Z,9.52
2018-12-05T00:18:46.020Z,9.53
2018-12-05T00:19:48.451Z,9.52
2018-12-05T00:20:50.900Z,9.55
2018-12-05T00:21:53.364Z,9.53
2018-12-05T00:22:55.807Z,9.54
2018-12-05T00:23:58.242Z,9.54
2018-12-05T00:25:00.689Z,9.55
2018-12-05T00:26:03.200Z,9.57
2018-12-05T00:27:05.660Z,9.58
2018-12-05T00:28:08.097Z,9.57
2018-12-05T00:29:10.542Z,9.55
2018-12-05T00:30:12.972Z,9.50
2018-12-05T00:31:15.411Z,9.51
2018-12-05T00:32:17.867Z,9.46
2018-12-05T00:33:20.302Z,9.47
2018-12-05T00:34:22.738Z,9.50
2018-12-05T00:35:25.167Z,9.50
2018-12-05T00:36:27.608Z,9.50
2018-12-05T00:37:30.063Z,9.48
2018-12-05T00:38:32.499Z,9.45
2018-12-05T00:39:40.875Z,9.44
2018-12-05T00:40:43.314Z,9.46
2018-12-05T00:41:45.745Z,9.46
2018-12-05T00:42:48.207Z,9.45
2018-12-05T00:43:50.635Z,9.43
2018-12-05T00:44:53.068Z,9.41
2018-12-05T00:45:55.500Z,9.40
2018-12-05T00:46:58.098Z,9.35
2018-12-05T00:48:00.579Z,9.33
2018-12-05T00:49:03.017Z,9.31
2018-12-05T00:50:05.717Z,9.30
2018-12-05T00:51:08.167Z,9.35
2018-12-05T00:52:10.591Z,9.39
2018-12-05T00:53:13.035Z,9.40
2018-12-05T00:54:15.465Z,9.38
2018-12-05T00:55:18.020Z,9.38
2018-12-05T00:56:20.456Z,9.41
2018-12-05T00:57:22.897Z,9.46
2018-12-05T00:58:25.347Z,9.53
2018-12-05T00:59:27.771Z,9.60
2018-12-05T01:00:30.209Z,9.63
2018-12-05T01:01:32.794Z,9.60
2018-12-05T01:02:35.323Z,9.63
2018-12-05T01:03:37.771Z,9.62
2018-12-05T01:04:40.216Z,9.61
2018-12-05T01:05:42.652Z,9.58
2018-12-05T01:06:45.075Z,9.57
2018-12-05T01:07:47.519Z,9.55
2018-12-05T01:08:49.964Z,9.58
2018-12-05T01:09:52.393Z,9.59
2018-12-05T01:10:54.821Z,9.55
2018-12-05T01:11:57.339Z,9.51
2018-12-05T01:12:59.804Z,9.43
2018-12-05T01:14:02.239Z,9.44
2018-12-05T01:15:05.163Z,9.44
2018-12-05T01:16:07.599Z,9.44
2018-12-05T01:17:10.029Z,9.46
2018-12-05T01:18:12.498Z,9.46
2018-12-05T01:19:14.951Z,9.47
2018-12-05T01:20:17.390Z,9.47
2018-12-05T01:21:19.829Z,9.47
2018-12-05T01:22:22.263Z,9.47
2018-12-05T01:23:24.713Z,9.48
2018-12-05T01:24:27.140Z,9.49
2018-12-05T01:25:29.564Z,9.53
2018-12-05T01:26:31.995Z,9.57
2018-12-05T01:27:34.434Z,9.56
2018-12-05T01:28:36.884Z,9.52
2018-12-05T01:29:39.324Z,9.47
2018-12-05T01:30:41.759Z,9.46
2018-12-05T01:31:44.209Z,9.44
2018-12-05T01:32:46.635Z,9.48
2018-12-05T01:33:49.080Z,9.44
2018-12-05T01:34:51.516Z,9.43
2018-12-05T01:35:53.943Z,9.42
2018-12-05T01:36:56.380Z,9.41
2018-12-05T01:37:58.906Z,9.38
2018-12-05T01:39:01.347Z,9.39
2018-12-05T01:40:04.660Z,9.45
2018-12-05T01:41:07.091Z,9.48
2018-12-05T01:42:09.536Z,9.40
2018-12-05T01:43:11.975Z,9.44
2018-12-05T01:44:14.425Z,9.39
2018-12-05T01:45:16.888Z,9.45
2018-12-05T01:46:19.337Z,9.45
2018-12-05T01:47:21.776Z,9.40
2018-12-05T01:48:24.220Z,9.38
2018-12-05T01:49:27.139Z,9.33
2018-12-05T01:50:29.584Z,9.31
2018-12-05T01:51:32.030Z,9.28
2018-12-05T01:52:34.479Z,9.25
2018-12-05T01:53:36.904Z,9.24
2018-12-05T01:54:39.368Z,9.27
2018-12-05T01:55:41.900Z,9.24
2018-12-05T01:56:44.337Z,9.25
2018-12-05T01:57:46.767Z,9.31
2018-12-05T01:58:49.201Z,9.35
2018-12-05T01:59:51.656Z,9.33
2018-12-05T02:00:54.093Z,9.33
2018-12-05T02:01:56.530Z,9.35
2018-12-05T02:02:58.977Z,9.37
2018-12-05T02:04:01.403Z,9.34
2018-12-05T02:05:04.040Z,9.37
2018-12-05T02:06:06.472Z,9.40
2018-12-05T02:07:08.904Z,9.40
2018-12-05T02:08:11.349Z,9.37
2018-12-05T02:09:13.791Z,9.38
2018-12-05T02:10:16.240Z,9.38
2018-12-05T02:11:18.808Z,9.35
2018-12-05T02:12:21.327Z,9.32
2018-12-05T02:13:23.760Z,9.32
2018-12-05T02:14:26.223Z,9.32
2018-12-05T02:15:28.683Z,9.31
2018-12-05T02:16:31.142Z,9.31
2018-12-05T02:17:33.580Z,9.30
2018-12-05T02:18:36.103Z,9.25
2018-12-05T02:19:38.566Z,9.24
2018-12-05T02:20:41.029Z,9.23
2018-12-05T02:21:43.471Z,9.23
2018-12-05T02:22:45.997Z,9.29
2018-12-05T02:23:48.428Z,9.27
2018-12-05T02:24:50.880Z,9.28
2018-12-05T02:25:53.347Z,9.31
2018-12-05T02:26:55.785Z,9.22
2018-12-05T02:27:58.244Z,9.15
2018-12-05T02:29:00.677Z,9.14
2018-12-05T02:30:03.126Z,9.11
2018-12-05T02:31:05.588Z,9.11
2018-12-05T02:32:08.095Z,9.17
2018-12-05T02:33:10.514Z,9.14
2018-12-05T02:34:12.962Z,9.16
2018-12-05T02:35:15.419Z,9.16
2018-12-05T02:36:17.856Z,9.15
2018-12-05T02:37:20.297Z,9.23
2018-12-05T02:38:22.733Z,9.20
2018-12-05T02:39:25.179Z,9.18
2018-12-05T02:40:27.649Z,9.20
2018-12-05T02:41:30.101Z,9.18
2018-12-05T02:42:32.540Z,9.15
2018-12-05T02:43:34.989Z,9.17
2018-12-05T02:44:37.511Z,9.24
2018-12-05T02:45:39.961Z,9.22
2018-12-05T02:46:42.403Z,9.19
2018-12-05T02:47:44.845Z,9.21
2018-12-05T02:48:47.323Z,9.16
2018-12-05T02:49:49.760Z,9.09
2018-12-05T02:50:52.205Z,9.09
2018-12-05T02:51:54.651Z,9.10
2018-12-05T02:52:57.090Z,9.14
2018-12-05T02:53:59.528Z,9.15
2018-12-05T02:55:02.003Z,9.14
2018-12-05T02:56:04.653Z,9.14
2018-12-05T02:57:07.093Z,9.07
2018-12-05T02:58:09.531Z,9.01
2018-12-05T02:59:11.976Z,8.98
2018-12-05T03:00:14.427Z,9.01
2018-12-05T03:01:16.868Z,9.00
2018-12-05T03:02:19.306Z,9.01
2018-12-05T03:03:21.740Z,9.00
2018-12-05T03:04:24.170Z,8.99
2018-12-05T03:05:26.661Z,9.03
2018-12-05T03:06:29.124Z,8.99
2018-12-05T03:07:31.572Z,8.93
2018-12-05T03:08:34.009Z,9.05
2018-12-05T03:09:36.453Z,8.98
2018-12-05T03:10:38.931Z,8.95
2018-12-05T03:11:41.363Z,8.92
2018-12-05T03:12:43.809Z,8.92
2018-12-05T03:13:46.263Z,8.92
2018-12-05T03:14:48.720Z,8.94
2018-12-05T03:15:51.189Z,8.93
2018-12-05T03:16:53.652Z,8.95
2018-12-05T03:17:56.102Z,8.96
2018-12-05T03:18:58.588Z,8.97
2018-12-05T03:20:01.033Z,8.96
2018-12-05T03:21:03.500Z,9.03
2018-12-05T03:22:05.951Z,9.01
2018-12-05T03:23:08.389Z,9.04
2018-12-05T03:24:10.816Z,9.04
2018-12-05T03:25:13.259Z,9.02
2018-12-05T03:26:15.715Z,9.06
2018-12-05T03:27:18.187Z,9.19
2018-12-05T03:28:20.648Z,9.16
2018-12-05T03:29:23.103Z,9.01
2018-12-05T03:30:25.565Z,8.99
2018-12-05T03:31:28.041Z,8.96
2018-12-05T03:32:30.506Z,8.98
2018-12-05T03:33:33.061Z,8.96
2018-12-05T03:34:35.520Z,8.87
2018-12-05T03:35:38.984Z,8.88
2018-12-05T03:36:41.587Z,8.89
2018-12-05T03:37:44.049Z,8.89
2018-12-05T03:38:46.491Z,8.98
2018-12-05T03:39:48.946Z,9.04
2018-12-05T03:40:51.383Z,9.02
2018-12-05T03:41:53.927Z,8.94
2018-12-05T03:42:56.368Z,8.83
2018-12-05T03:43:58.824Z,8.85
2018-12-05T03:45:01.274Z,8.78
2018-12-05T03:46:03.730Z,8.80
2018-12-05T03:47:06.293Z,8.82
2018-12-05T03:48:08.728Z,8.84
2018-12-05T03:49:11.165Z,8.84
2018-12-05T03:50:13.604Z,8.79
2018-12-05T03:51:16.036Z,8.79
2018-12-05T03:52:18.497Z,8.79
2018-12-05T03:53:20.944Z,8.80
2018-12-05T03:54:23.391Z,8.79
2018-12-05T03:55:25.836Z,8.81
2018-12-05T03:56:28.292Z,8.80
2018-12-05T03:57:30.765Z,8.82
2018-12-05T03:58:33.229Z,8.81
2018-12-05T03:59:35.671Z,8.80
2018-12-05T04:00:38.108Z,8.94
2018-12-05T04:01:40.554Z,8.90
2018-12-05T04:02:43.038Z,8.83
2018-12-05T04:03:45.481Z,8.82
2018-12-05T04:04:47.924Z,8.77
2018-12-05T04:05:50.382Z,8.81
2018-12-05T04:06:52.821Z,8.93
2018-12-05T04:07:55.278Z,8.89
2018-12-05T04:08:57.776Z,8.77
2018-12-05T04:10:00.220Z,8.84
2018-12-05T04:11:02.660Z,8.95
2018-12-05T04:12:05.115Z,8.90
2018-12-05T04:13:07.587Z,8.78
2018-12-05T04:14:10.049Z,8.71
2018-12-05T04:15:12.615Z,8.78
2018-12-05T04:16:15.068Z,8.71
2018-12-05T04:17:17.511Z,8.72
2018-12-05T04:18:19.965Z,8.76
2018-12-05T04:19:22.420Z,8.69
2018-12-05T04:20:24.866Z,8.64
2018-12-05T04:21:27.309Z,8.64
2018-12-05T04:22:29.751Z,8.68
2018-12-05T04:23:32.274Z,8.72
2018-12-05T04:24:34.728Z,8.78
2018-12-05T04:25:37.179Z,8.72
2018-12-05T04:26:39.626Z,8.70
2018-12-05T04:27:42.076Z,8.74
2018-12-05T04:28:44.545Z,8.71
2018-12-05T04:29:47.003Z,8.15
2018-12-05T04:30:49.439Z,8.73
2018-12-05T04:31:51.878Z,8.77
2018-12-05T04:32:54.316Z,8.76
2018-12-05T04:33:56.841Z,8.76
2018-12-05T04:34:59.322Z,8.73
2018-12-05T04:36:01.764Z,8.68
2018-12-05T04:37:04.209Z,8.70
2018-12-05T04:38:06.660Z,8.71
2018-12-05T04:39:09.305Z,8.71
2018-12-05T04:40:11.768Z,8.76
2018-12-05T04:41:14.204Z,8.72
2018-12-05T04:42:16.660Z,8.71
2018-12-05T04:43:19.096Z,8.75
2018-12-05T04:44:21.547Z,8.71
2018-12-05T04:45:23.993Z,8.70
2018-12-05T04:46:26.424Z,8.74
2018-12-05T04:47:28.871Z,8.77
2018-12-05T04:48:31.308Z,8.76
2018-12-05T04:49:33.753Z,8.76
2018-12-05T04:50:36.206Z,8.79
2018-12-05T04:51:38.649Z,8.75
2018-12-05T04:52:41.095Z,8.72
2018-12-05T04:53:43.539Z,8.75
2018-12-05T04:54:46.000Z,8.79
2018-12-05T04:55:48.440Z,8.79
2018-12-05T04:56:50.885Z,8.77
2018-12-05T04:57:53.317Z,8.77
2018-12-05T04:58:55.755Z,8.78
2018-12-05T04:59:58.211Z,8.79
2018-12-05T05:01:00.658Z,8.75
2018-12-05T05:02:03.569Z,8.81
2018-12-05T05:03:06.013Z,8.77
2018-12-05T05:04:08.459Z,8.72
2018-12-05T05:05:10.907Z,8.76
2018-12-05T05:06:13.343Z,8.77
2018-12-05T05:07:15.786Z,8.69
2018-12-05T05:08:18.229Z,8.71
2018-12-05T05:09:20.673Z,8.72
2018-12-05T05:10:23.136Z,8.75
2018-12-05T05:11:25.587Z,8.68
2018-12-05T05:12:28.039Z,8.67
2018-12-05T05:13:30.487Z,8.74
2018-12-05T05:14:32.928Z,8.76
2018-12-05T05:15:35.384Z,8.68
2018-12-05T05:16:37.825Z,8.68
2018-12-05T05:17:40.272Z,8.65
2018-12-05T05:18:42.703Z,8.65
2018-12-05T05:19:45.140Z,8.54
2018-12-05T05:20:47.587Z,8.57
2018-12-05T05:21:50.029Z,8.58
2018-12-05T05:22:52.459Z,8.53
2018-12-05T05:23:54.899Z,8.59
2018-12-05T05:24:57.331Z,8.68
2018-12-05T05:25:59.795Z,8.64
2018-12-05T05:27:02.252Z,8.57
2018-12-05T05:28:04.776Z,8.59
2018-12-05T05:29:07.237Z,8.56
2018-12-05T05:30:09.774Z,8.44
2018-12-05T05:31:12.235Z,8.42
2018-12-05T05:32:14.768Z,8.44
2018-12-05T05:33:17.210Z,8.40
2018-12-05T05:34:19.654Z,8.40
2018-12-05T05:35:22.105Z,8.35
2018-12-05T05:36:24.562Z,8.29
2018-12-05T05:37:27.021Z,8.30
2018-12-05T05:38:29.477Z,8.35
2018-12-05T05:39:31.916Z,8.23
2018-12-05T05:40:34.380Z,8.26
2018-12-05T05:41:36.887Z,8.29
2018-12-05T05:42:39.340Z,8.33
2018-12-05T05:43:41.776Z,8.36
2018-12-05T05:44:44.235Z,8.29
2018-12-05T05:45:46.927Z,8.30
2018-12-05T05:46:49.420Z,8.30
2018-12-05T05:47:51.880Z,8.35
2018-12-05T05:48:54.324Z,8.30
2018-12-05T05:49:56.771Z,8.32
2018-12-05T05:50:59.267Z,8.37
2018-12-05T05:52:01.732Z,8.33
2018-12-05T05:53:04.179Z,8.34
2018-12-05T05:54:06.627Z,8.26
2018-12-05T05:55:09.167Z,8.24
2018-12-05T05:56:11.616Z,8.29
2018-12-05T05:57:14.080Z,8.36
2018-12-05T05:58:16.540Z,8.31
2018-12-05T05:59:18.984Z,8.29
2018-12-05T06:00:21.428Z,8.36
2018-12-05T06:01:23.865Z,8.29
2018-12-05T06:02:26.320Z,8.26
2018-12-05T06:03:28.765Z,8.26
2018-12-05T06:04:31.203Z,8.37
2018-12-05T06:05:33.641Z,8.34
2018-12-05T06:06:36.087Z,8.47
2018-12-05T06:07:38.551Z,8.39
2018-12-05T06:08:41.006Z,8.40
2018-12-05T06:09:43.451Z,8.37
2018-12-05T06:10:45.914Z,8.36
2018-12-05T06:11:48.357Z,8.35
2018-12-05T06:12:50.815Z,8.38
2018-12-05T06:13:53.279Z,8.43
2018-12-05T06:14:55.722Z,8.44
2018-12-05T06:15:58.168Z,8.48
2018-12-05T06:17:00.608Z,8.61
2018-12-05T06:18:03.066Z,8.56
2018-12-05T06:19:05.613Z,8.52
2018-12-05T06:20:08.141Z,8.48
2018-12-05T06:21:10.583Z,8.52
2018-12-05T06:22:13.028Z,8.57
2018-12-05T06:23:15.488Z,8.71
2018-12-05T06:24:17.943Z,8.61
2018-12-05T06:25:20.390Z,8.51
2018-12-05T06:26:22.888Z,8.47
2018-12-05T06:27:25.338Z,8.53
2018-12-05T06:28:27.795Z,8.59
2018-12-05T06:29:30.266Z,8.55
2018-12-05T06:30:32.719Z,8.61
2018-12-05T06:31:35.152Z,8.66
2018-12-05T06:32:37.588Z,8.69
2018-12-05T06:33:40.052Z,8.64
2018-12-05T06:34:42.487Z,8.62
2018-12-05T06:35:44.944Z,8.61
2018-12-05T06:36:47.379Z,8.65
2018-12-05T06:37:49.828Z,8.69
2018-12-05T06:38:52.297Z,8.70
2018-12-05T06:39:54.756Z,8.78
2018-12-05T06:40:57.187Z,8.84
2018-12-05T06:41:59.623Z,8.71
2018-12-05T06:43:02.059Z,8.68
2018-12-05T06:44:04.527Z,8.71
2018-12-05T06:45:07.081Z,8.61
2018-12-05T06:46:09.519Z,8.66
2018-12-05T06:47:11.968Z,8.62
2018-12-05T06:48:14.412Z,8.58
2018-12-05T06:49:16.964Z,8.63
2018-12-05T06:50:19.400Z,8.64
2018-12-05T06:51:21.850Z,8.63
2018-12-05T06:52:24.308Z,8.66
2018-12-05T06:53:26.739Z,8.69
2018-12-05T06:54:32.028Z,8.72
2018-12-05T06:55:39.112Z,8.71
2018-12-05T06:56:39.292Z,8.73
2018-12-05T06:57:41.743Z,8.75
2018-12-05T06:58:44.187Z,8.67
2018-12-05T06:59:46.651Z,8.62
2018-12-05T07:00:49.112Z,8.65
2018-12-05T07:01:51.556Z,8.64
2018-12-05T07:02:54.002Z,8.63
2018-12-05T07:03:56.459Z,8.62
2018-12-05T07:04:58.923Z,8.63
2018-12-05T07:06:01.387Z,8.67
2018-12-05T07:07:03.930Z,8.74
2018-12-05T07:08:06.370Z,8.73
2018-12-05T07:09:08.860Z,8.77
2018-12-05T07:10:11.434Z,8.76
2018-12-05T07:11:13.952Z,8.78
2018-12-05T07:12:16.431Z,8.79
2018-12-05T07:13:18.878Z,8.75
2018-12-05T07:14:21.309Z,8.75
2018-12-05T07:15:23.776Z,8.79
2018-12-05T07:16:26.245Z,8.84
2018-12-05T07:17:28.691Z,8.74
2018-12-05T07:18:31.174Z,8.76
2018-12-05T07:19:33.621Z,8.70
2018-12-05T07:20:36.107Z,8.70
2018-12-05T07:21:38.754Z,8.71
2018-12-05T07:22:41.199Z,8.79
2018-12-05T07:23:43.631Z,8.71
2018-12-05T07:24:46.075Z,8.71
2018-12-05T07:25:48.552Z,8.67
2018-12-05T07:26:51.033Z,8.71
2018-12-05T07:27:53.481Z,8.79
2018-12-05T07:28:55.920Z,8.73
2018-12-05T07:29:58.368Z,8.71
2018-12-05T07:31:00.813Z,8.68
2018-12-05T07:32:03.259Z,8.68
2018-12-05T07:33:05.747Z,8.67
2018-12-05T07:34:08.201Z,8.68
2018-12-05T07:35:10.657Z,8.70
2018-12-05T07:36:13.205Z,8.70
2018-12-05T07:37:16.645Z,8.71
2018-12-05T07:38:19.556Z,8.68
2018-12-05T07:39:23.395Z,8.68
2018-12-05T07:40:26.520Z,8.66
2018-12-05T07:41:29.035Z,8.64
2018-12-05T07:42:31.541Z,8.66
2018-12-05T07:43:33.979Z,8.84
2018-12-05T07:44:36.513Z,8.74
2018-12-05T07:45:39.045Z,8.76
2018-12-05T07:46:41.620Z,8.67
2018-12-05T07:47:44.123Z,8.61
2018-12-05T07:48:46.588Z,8.65
2018-12-05T07:49:49.240Z,8.60
2018-12-05T07:50:51.747Z,8.70
2018-12-05T07:51:54.224Z,8.64
2018-12-05T07:52:56.946Z,8.71
2018-12-05T07:54:00.040Z,8.67
2018-12-05T07:55:02.564Z,8.77
2018-12-05T07:56:05.047Z,8.64
2018-12-05T07:57:07.649Z,8.57
2018-12-05T07:58:10.194Z,8.54
2018-12-05T07:59:14.664Z,8.53
2018-12-05T08:00:17.214Z,8.54
2018-12-05T08:01:20.662Z,8.57
2018-12-05T08:02:23.329Z,8.56
2018-12-05T08:03:25.887Z,8.64
2018-12-05T08:04:29.299Z,8.67
2018-12-05T08:05:31.752Z,8.72
2018-12-05T08:06:34.200Z,8.67
2018-12-05T08:07:36.821Z,8.66
2018-12-05T08:08:39.452Z,8.69
2018-12-05T08:09:42.108Z,8.70
2018-12-05T08:10:44.591Z,8.69
2018-12-05T08:11:47.078Z,8.71
2018-12-05T08:12:49.580Z,8.75
2018-12-05T08:13:52.045Z,8.71
2018-12-05T08:14:54.631Z,8.74
2018-12-05T08:15:57.162Z,8.75
2018-12-05T08:16:59.623Z,8.78
2018-12-05T08:18:02.085Z,8.88
2018-12-05T08:19:04.660Z,8.82
2018-12-05T08:20:07.280Z,8.88
2018-12-05T08:21:09.714Z,8.79
2018-12-05T08:22:12.154Z,8.79
2018-12-05T08:23:14.643Z,8.94
2018-12-05T08:24:17.191Z,8.77
2018-12-05T08:25:19.655Z,8.65
2018-12-05T08:26:22.104Z,8.65
2018-12-05T08:27:24.568Z,8.51
2018-12-05T08:28:27.076Z,8.57
2018-12-05T08:29:29.535Z,8.58
2018-12-05T08:30:32.004Z,8.60
2018-12-05T08:31:34.455Z,8.69
2018-12-05T08:32:36.936Z,8.61
2018-12-05T08:33:39.441Z,8.63
2018-12-05T08:34:41.907Z,8.56
2018-12-05T08:35:44.377Z,8.57
2018-12-05T08:36:46.892Z,8.69
2018-12-05T08:37:49.369Z,8.53
2018-12-05T08:38:51.852Z,8.44
2018-12-05T08:39:54.333Z,8.42
2018-12-05T08:40:56.869Z,8.26
2018-12-05T08:41:59.336Z,8.29
2018-12-05T08:43:01.772Z,8.34
2018-12-05T08:44:04.297Z,8.40
2018-12-05T08:45:06.876Z,8.41
2018-12-05T08:46:09.412Z,8.59
2018-12-05T08:47:11.995Z,8.56
2018-12-05T08:48:14.463Z,8.60
2018-12-05T08:49:16.951Z,8.67
2018-12-05T08:50:19.475Z,8.63
2018-12-05T08:51:21.922Z,8.62
2018-12-05T08:52:24.402Z,8.67
2018-12-05T08:53:26.868Z,8.70
2018-12-05T08:54:29.378Z,8.65
2018-12-05T08:55:31.884Z,8.56
2018-12-05T08:56:34.331Z,8.64
2018-12-05T08:57:36.816Z,8.60
2018-12-05T08:58:39.295Z,8.54
2018-12-05T08:59:41.789Z,8.51
2018-12-05T09:00:44.228Z,8.62
2018-12-05T09:01:46.672Z,8.55
2018-12-05T09:02:49.139Z,8.63
2018-12-05T09:03:51.687Z,8.67
2018-12-05T09:04:54.139Z,8.58
2018-12-05T09:05:56.633Z,8.61
2018-12-05T09:06:59.147Z,8.69
2018-12-05T09:08:01.588Z,8.69
2018-12-05T09:09:06.137Z,8.63
2018-12-05T09:10:08.700Z,8.57
2018-12-05T09:11:11.173Z,8.53
2018-12-05T09:12:13.617Z,8.59
2018-12-05T09:13:16.072Z,8.64
2018-12-05T09:14:18.512Z,8.74
2018-12-05T09:15:21.010Z,8.79
2018-12-05T09:16:23.471Z,8.75
2018-12-05T09:17:25.908Z,8.73
2018-12-05T09:18:28.341Z,8.64
2018-12-05T09:19:30.892Z,8.55
2018-12-05T09:20:33.351Z,8.59
2018-12-05T09:21:35.823Z,8.59
2018-12-05T09:22:41.425Z,8.67
2018-12-05T09:23:42.739Z,8.65
2018-12-05T09:24:45.196Z,8.70
2018-12-05T09:25:47.659Z,8.75
2018-12-05T09:26:50.113Z,8.86
2018-12-05T09:27:52.548Z,8.89
2018-12-05T09:28:57.321Z,8.88
2018-12-05T09:29:59.456Z,8.85
2018-12-05T09:31:01.945Z,8.79
2018-12-05T09:32:04.409Z,8.75
2018-12-05T09:33:06.881Z,8.90
2018-12-05T09:34:09.315Z,8.82
2018-12-05T09:35:11.757Z,8.80
2018-12-05T09:36:14.244Z,8.74
2018-12-05T09:37:16.704Z,8.71
2018-12-05T09:38:19.149Z,8.71
2018-12-05T09:39:21.603Z,8.70
2018-12-05T09:40:24.046Z,8.78
2018-12-05T09:41:26.509Z,8.80
2018-12-05T09:42:28.952Z,8.76
2018-12-05T09:43:31.391Z,8.75
2018-12-05T09:44:33.832Z,8.78
2018-12-05T09:45:36.361Z,8.77
2018-12-05T09:46:38.820Z,8.84
2018-12-05T09:47:41.268Z,8.95
2018-12-05T09:48:43.715Z,8.98
2018-12-05T09:49:46.161Z,8.96
2018-12-05T09:50:48.629Z,8.95
2018-12-05T09:51:51.092Z,8.97
2018-12-05T09:52:53.555Z,8.94
2018-12-05T09:53:56.009Z,9.00
2018-12-05T09:54:58.473Z,9.03
2018-12-05T09:56:00.924Z,9.02
2018-12-05T09:57:03.416Z,8.95
2018-12-05T09:58:05.881Z,8.99
2018-12-05T09:59:08.345Z,9.00
2018-12-05T10:00:10.993Z,8.94
2018-12-05T10:01:13.451Z,8.99
2018-12-05T10:02:15.946Z,8.97
2018-12-05T10:03:18.444Z,9.12
2018-12-05T10:04:20.879Z,9.17
2018-12-05T10:05:23.343Z,9.12
2018-12-05T10:06:25.791Z,9.30
2018-12-05T10:07:29.195Z,9.26
2018-12-05T10:08:31.684Z,9.20
2018-12-05T10:09:34.198Z,9.27
2018-12-05T10:10:36.678Z,9.12
2018-12-05T10:11:39.195Z,9.06
2018-12-05T10:12:41.926Z,9.22
2018-12-05T10:13:44.621Z,9.17
2018-12-05T10:14:47.072Z,9.11
2018-12-05T10:15:49.514Z,9.00
2018-12-05T10:16:51.984Z,9.09
2018-12-05T10:17:54.436Z,9.14
2018-12-05T10:18:56.903Z,9.17
2018-12-05T10:19:59.364Z,9.26
2018-12-05T10:21:01.859Z,9.28
2018-12-05T10:22:04.386Z,9.29
2018-12-05T10:23:08.035Z,9.44
2018-12-05T10:24:10.676Z,9.45
2018-12-05T10:25:13.193Z,9.43
2018-12-05T10:26:15.658Z,9.33
2018-12-05T10:27:18.108Z,9.25
2018-12-05T10:28:20.570Z,9.34
2018-12-05T10:29:23.074Z,9.38
2018-12-05T10:30:25.665Z,9.29
2018-12-05T10:31:28.164Z,9.35
2018-12-05T10:32:30.647Z,9.41
2018-12-05T10:33:33.108Z,9.32
2018-12-05T10:34:35.613Z,9.29
2018-12-05T10:35:38.064Z,9.20
2018-12-05T10:36:40.549Z,9.15
2018-12-05T10:37:42.983Z,9.20
2018-12-05T10:38:45.520Z,9.32
2018-12-05T10:39:48.030Z,9.36
2018-12-05T10:40:50.548Z,9.26
2018-12-05T10:41:53.002Z,9.28
2018-12-05T10:42:55.444Z,9.37
2018-12-05T10:43:57.906Z,9.34
2018-12-05T10:45:00.411Z,9.41
2018-12-05T10:46:02.868Z,9.31
2018-12-05T10:47:05.609Z,9.30
2018-12-05T10:48:08.180Z,9.39
2018-12-05T10:49:10.663Z,9.31
2018-12-05T10:50:13.149Z,9.38
2018-12-05T10:51:15.606Z,9.48
2018-12-05T10:52:18.053Z,9.52
2018-12-05T10:53:20.593Z,9.52
2018-12-05T10:54:23.063Z,9.61
2018-12-05T10:55:25.517Z,9.49
2018-12-05T10:56:28.190Z,9.39
2018-12-05T10:57:30.619Z,9.32
2018-12-05T10:58:33.070Z,9.38
2018-12-05T10:59:35.547Z,9.29
2018-12-05T11:00:43.592Z,9.93
2018-12-05T11:01:51.690Z,9.81
2018-12-05T11:04:35.152Z,9.32
2018-12-05T11:05:43.355Z,9.23
2018-12-05T11:06:51.473Z,9.18
2018-12-05T11:07:59.699Z,9.23
2018-12-05T11:09:07.945Z,9.23
2018-12-05T11:10:16.065Z,9.27
2018-12-05T11:11:24.172Z,9.25
2018-12-05T11:14:11.899Z,9.13
2018-12-05T11:15:19.948Z,9.10
2018-12-05T11:16:27.971Z,9.12
2018-12-05T11:17:36.133Z,9.14
2018-12-05T11:18:44.247Z,9.15
2018-12-05T11:19:52.378Z,9.20
2018-12-05T11:21:00.576Z,9.19
2018-12-05T11:22:10.111Z,9.24
2018-12-05T11:24:55.545Z,9.17
2018-12-05T11:26:00.047Z,9.13
2018-12-05T11:27:02.495Z,9.19
2018-12-05T11:28:04.943Z,9.18
2018-12-05T11:29:07.390Z,9.20
2018-12-05T11:30:09.916Z,9.23
2018-12-05T11:31:12.420Z,9.30
2018-12-05T11:32:14.883Z,9.34
2018-12-05T11:33:17.355Z,9.39
2018-12-05T11:34:19.814Z,9.39
2018-12-05T11:35:22.273Z,9.38
2018-12-05T11:36:24.818Z,9.40
2018-12-05T11:37:27.298Z,9.45
2018-12-05T11:38:29.750Z,9.53
2018-12-05T11:39:32.252Z,9.57
2018-12-05T11:40:34.780Z,9.57
2018-12-05T11:41:37.299Z,9.57
2018-12-05T11:42:39.861Z,9.69
2018-12-05T11:43:42.361Z,9.62
2018-12-05T11:44:44.803Z,9.59
2018-12-05T11:45:47.307Z,9.61
2018-12-05T11:46:49.785Z,9.53
2018-12-05T11:47:52.390Z,9.48
2018-12-05T11:48:54.837Z,9.50
2018-12-05T11:49:57.309Z,9.59
2018-12-05T11:50:59.765Z,9.60
2018-12-05T11:52:02.280Z,9.60
2018-12-05T11:53:04.747Z,9.57
2018-12-05T11:54:07.480Z,9.54
2018-12-05T11:55:09.932Z,9.50
2018-12-05T11:56:12.390Z,9.50
2018-12-05T11:57:14.880Z,9.52
2018-12-05T11:58:17.343Z,9.55
2018-12-05T11:59:19.793Z,9.53
2018-12-05T12:00:22.289Z,9.57
2018-12-05T12:01:24.732Z,9.62
2018-12-05T12:02:27.234Z,9.66
2018-12-05T12:03:29.677Z,9.62
2018-12-05T12:04:32.589Z,9.55
2018-12-05T12:05:35.051Z,9.54
2018-12-05T12:06:37.598Z,9.53
2018-12-05T12:07:40.074Z,9.52
2018-12-05T12:08:42.614Z,9.54
2018-12-05T12:09:45.052Z,9.50
2018-12-05T12:10:47.500Z,9.55
2018-12-05T12:11:49.966Z,9.56
2018-12-05T12:12:58.139Z,9.56
2018-12-05T12:14:00.599Z,9.59
2018-12-05T12:15:03.147Z,9.66
2018-12-05T12:16:05.649Z,9.66
2018-12-05T12:17:08.142Z,9.64
2018-12-05T12:18:10.610Z,9.58
2018-12-05T12:19:13.061Z,9.56
2018-12-05T12:20:15.504Z,9.48
2018-12-05T12:21:18.001Z,9.50
2018-12-05T12:22:20.571Z,9.50
2018-12-05T12:23:23.125Z,9.48
2018-12-05T12:24:25.785Z,9.51
2018-12-05T12:25:28.260Z,9.54
2018-12-05T12:26:33.411Z,9.53
2018-12-05T12:27:35.347Z,9.56
2018-12-05T12:28:37.839Z,9.55
2018-12-05T12:29:40.301Z,9.55
2018-12-05T12:30:42.929Z,9.51
2018-12-05T12:31:45.424Z,9.52
2018-12-05T12:32:47.994Z,9.48
2018-12-05T12:33:50.610Z,9.55
2018-12-05T12:34:53.093Z,9.53
2018-12-05T12:35:55.563Z,9.49
2018-12-05T12:36:58.052Z,9.53
2018-12-05T12:38:00.505Z,9.52
2018-12-05T12:39:03.285Z,9.51
2018-12-05T12:40:05.790Z,9.60
2018-12-05T12:41:08.468Z,9.65
2018-12-05T12:42:10.964Z,9.58
2018-12-05T12:43:13.575Z,9.50
2018-12-05T12:44:16.482Z,9.53
2018-12-05T12:45:20.098Z,9.51
2018-12-05T12:46:22.785Z,9.51
2018-12-05T12:47:25.321Z,9.49
2018-12-05T12:48:27.861Z,9.53
2018-12-05T12:49:30.851Z,9.53
2018-12-05T12:50:33.356Z,9.53
2018-12-05T12:51:35.860Z,9.55
2018-12-05T12:52:38.312Z,9.56
2018-12-05T12:53:40.774Z,9.58
2018-12-05T12:54:43.276Z,9.57
2018-12-05T12:55:45.941Z,9.61
2018-12-05T12:56:48.544Z,9.62
2018-12-05T12:57:51.030Z,9.62
2018-12-05T12:58:53.473Z,9.61
2018-12-05T12:59:55.993Z,9.62
2018-12-05T13:00:58.754Z,9.65
2018-12-05T13:02:01.307Z,9.66
2018-12-05T13:03:03.920Z,9.67
2018-12-05T13:04:06.368Z,9.68
2018-12-05T13:05:08.862Z,9.74
2018-12-05T13:06:11.376Z,9.70
2018-12-05T13:07:13.852Z,9.69
2018-12-05T13:08:16.585Z,9.72
2018-12-05T13:09:19.099Z,9.73
2018-12-05T13:10:21.548Z,9.76
2018-12-05T13:11:24.025Z,9.73
2018-12-05T13:12:27.791Z,9.76
2018-12-05T13:13:30.297Z,9.68
2018-12-05T13:14:32.784Z,9.69
2018-12-05T13:15:35.302Z,9.66
2018-12-05T13:16:37.806Z,9.67
2018-12-05T13:17:40.317Z,9.65
2018-12-05T13:18:42.779Z,9.64
2018-12-05T13:19:45.975Z,9.67
2018-12-05T13:20:48.487Z,9.68
2018-12-05T13:21:51.028Z,9.70
2018-12-05T13:22:53.783Z,9.67
2018-12-05T13:23:57.112Z,9.67
2018-12-05T13:24:59.630Z,9.69
2018-12-05T13:26:02.085Z,9.67
2018-12-05T13:27:04.646Z,9.70
2018-12-05T13:28:07.108Z,9.68
2018-12-05T13:29:10.675Z,9.67
2018-12-05T13:30:13.481Z,9.69
2018-12-05T13:31:17.065Z,9.69
2018-12-05T13:32:20.480Z,9.73
2018-12-05T13:33:23.778Z,9.65
2018-12-05T13:34:27.397Z,9.62
2018-12-05T13:35:30.252Z,9.59
2018-12-05T13:36:33.341Z,9.60
2018-12-05T13:37:35.959Z,9.62
2018-12-05T13:38:38.531Z,9.59
2018-12-05T13:39:41.123Z,9.58
2018-12-05T13:40:44.052Z,9.62
2018-12-05T13:41:46.926Z,9.60
2018-12-05T13:42:49.539Z,9.58
2018-12-05T13:43:52.060Z,9.57
2018-12-05T13:44:55.380Z,9.58
2018-12-05T13:45:58.735Z,9.60
2018-12-05T13:47:02.463Z,9.61
2018-12-05T13:48:05.195Z,9.61
2018-12-05T13:49:07.670Z,9.65
2018-12-05T13:50:10.231Z,9.69
2018-12-05T13:51:12.727Z,9.63
2018-12-05T13:52:17.569Z,9.65
2018-12-05T13:53:20.055Z,9.63
2018-12-05T13:54:22.514Z,9.60
2018-12-05T13:55:25.015Z,9.58
2018-12-05T13:56:27.504Z,9.57
2018-12-05T13:57:29.969Z,9.62
2018-12-05T13:58:32.569Z,9.64